Time,TemperatureF,DewpointF,PressureIn,WindDirection,WindDirectionDegrees,WindSpeedMPH,WindSpeedGustMPH,Humidity,HourlyPrecipIn,Conditions,Clouds,dailyrainin,SoftwareType,DateUTC
2013-03-11 00:00:00,34.7,34.2,29.88,NNE,17,11.0,12.0,98,1.24,,---,2.78,VWS V14.01,2013-03-11 04:00:00,
2013-03-11 00:05:00,34.8,34.3,29.88,NNE,19,8.0,11.0,98,1.14,,---,0.01,VWS V14.01,2013-03-11 04:05:00,
2013-03-11 00:10:00,34.9,34.4,29.87,NNE,17,9.0,14.0,98,1.14,,---,0.01,VWS V14.01,2013-03-11 04:10:00,
2013-03-11 00:15:00,34.8,34.3,29.87,NNE,17,9.0,14.0,98,1.15,,---,0.02,VWS V14.01,2013-03-11 04:15:00,
2013-03-11 00:20:00,34.9,34.4,29.87,NNE,25,10.0,14.0,98,1.16,,---,0.03,VWS V14.01,2013-03-11 04:20:00,
2013-03-11 00:25:00,35.1,34.6,29.87,ENE,72,7.0,14.0,98,1.20,,---,0.07,VWS V14.01,2013-03-11 04:25:00,
2013-03-11 00:30:00,35.1,34.6,29.88,East,88,8.0,14.0,98,1.31,,---,0.18,VWS V14.01,2013-03-11 04:30:00,
2013-03-11 00:35:00,35.1,34.6,29.87,East,81,7.0,13.0,98,1.25,,---,0.31,VWS V14.01,2013-03-11 04:35:00,
2013-03-11 00:40:00,35.1,34.6,29.87,East,86,7.0,13.0,98,1.35,,---,0.41,VWS V14.01,2013-03-11 04:40:00,
2013-03-11 00:45:00,35.1,34.6,29.87,East,90,10.0,13.0,98,1.44,,---,0.50,VWS V14.01,2013-03-11 04:45:00,
2013-03-11 00:50:00,35.1,34.6,29.86,ENE,71,11.0,13.0,98,1.55,,---,0.61,VWS V14.01,2013-03-11 04:50:00,
2013-03-11 00:55:00,35.1,34.6,29.86,East,90,10.0,15.0,98,1.65,,---,0.71,VWS V14.01,2013-03-11 04:55:00,
2013-03-11 01:00:00,35.1,34.6,29.85,East,84,12.0,18.0,98,1.72,,---,0.78,VWS V14.01,2013-03-11 05:00:00,
2013-03-11 01:05:00,35.0,34.5,29.85,East,84,6.0,15.0,98,0.85,,---,0.86,VWS V14.01,2013-03-11 05:05:00,
2013-03-11 01:10:00,35.0,34.5,29.84,ESE,102,7.0,15.0,98,0.90,,---,0.90,VWS V14.01,2013-03-11 05:10:00,
2013-03-11 01:15:00,35.0,34.5,29.83,ENE,77,11.0,15.0,98,0.96,,---,0.96,VWS V14.01,2013-03-11 05:15:00,
2013-03-11 01:20:00,35.1,34.6,29.83,East,96,14.0,18.0,98,0.99,,---,0.99,VWS V14.01,2013-03-11 05:20:00,
2013-03-11 01:25:00,35.0,34.5,29.83,ENE,73,11.0,18.0,98,1.02,,---,1.02,VWS V14.01,2013-03-11 05:25:00,
2013-03-11 01:30:00,35.0,34.5,29.82,East,84,16.0,18.0,98,1.05,,---,1.05,VWS V14.01,2013-03-11 05:30:00,
2013-03-11 01:35:00,35.1,34.6,29.82,East,91,11.0,18.0,98,0.86,,---,1.07,VWS V14.01,2013-03-11 05:35:00,
2013-03-11 01:40:00,35.1,34.6,29.82,East,92,15.0,20.0,98,0.87,,---,1.08,VWS V14.01,2013-03-11 05:40:00,
2013-03-11 01:45:00,35.1,34.6,29.82,ESE,106,15.0,20.0,98,0.88,,---,1.09,VWS V14.01,2013-03-11 05:45:00,
2013-03-11 01:50:00,35.2,34.7,29.82,ESE,102,16.0,20.0,98,0.91,,---,1.12,VWS V14.01,2013-03-11 05:50:00,
2013-03-11 01:55:00,35.2,34.7,29.81,East,99,15.0,20.0,98,0.95,,---,1.16,VWS V14.01,2013-03-11 05:55:00,
2013-03-11 02:00:00,35.2,34.7,29.81,East,100,12.0,21.0,98,0.97,,---,1.18,VWS V14.01,2013-03-11 06:00:00,
2013-03-11 02:05:00,35.1,34.6,29.80,ESE,109,13.0,22.0,98,0.41,,---,1.21,VWS V14.01,2013-03-11 06:05:00,
2013-03-11 02:10:00,35.1,34.6,29.80,East,100,13.0,24.0,98,0.43,,---,1.23,VWS V14.01,2013-03-11 06:10:00,
2013-03-11 02:15:00,35.2,34.7,29.80,East,88,11.0,27.0,98,0.44,,---,1.24,VWS V14.01,2013-03-11 06:15:00,
2013-03-11 02:21:00,35.2,34.7,29.80,ESE,116,14.0,27.0,98,0.44,,---,1.24,VWS V14.01,2013-03-11 06:21:00,
2013-03-11 02:26:00,35.2,34.7,29.80,ESE,110,9.0,27.0,98,0.45,,---,1.25,VWS V14.01,2013-03-11 06:26:00,
2013-03-11 02:30:00,35.2,34.7,29.80,SE,128,10.0,27.0,98,0.48,,---,1.28,VWS V14.01,2013-03-11 06:30:00,
2013-03-11 02:35:00,35.1,34.6,29.80,SE,125,16.0,19.0,98,0.25,,---,1.31,VWS V14.01,2013-03-11 06:35:00,
2013-03-11 02:41:00,35.1,34.6,29.79,ESE,104,17.0,22.0,98,0.30,,---,1.35,VWS V14.01,2013-03-11 06:41:00,
2013-03-11 02:46:00,35.1,34.6,29.80,ESE,115,20.0,24.0,98,0.31,,---,1.37,VWS V14.01,2013-03-11 06:46:00,
2013-03-11 02:51:00,35.0,34.5,29.80,ESE,106,12.0,24.0,98,0.34,,---,1.39,VWS V14.01,2013-03-11 06:51:00,
2013-03-11 02:56:00,35.0,34.5,29.80,ESE,113,16.0,24.0,98,0.38,,---,1.43,VWS V14.01,2013-03-11 06:56:00,
2013-03-11 03:00:00,35.0,34.5,29.79,ESE,107,12.0,25.0,98,0.42,,---,1.47,VWS V15.00,2013-03-11 07:00:00,
2013-03-11 03:01:00,35.0,34.5,29.79,ESE,118,13.0,24.0,98,0.41,,---,1.46,VWS V14.01,2013-03-11 07:01:00,
2013-03-11 03:06:00,35.0,34.5,29.78,ESE,106,22.0,24.0,98,0.30,,---,1.49,VWS V14.01,2013-03-11 07:06:00,
2013-03-11 03:11:00,34.9,34.4,29.78,ESE,117,11.0,24.0,98,0.32,,---,1.51,VWS V14.01,2013-03-11 07:11:00,
2013-03-11 03:16:00,34.8,34.3,29.77,ESE,108,24.0,27.0,98,0.34,,---,1.53,VWS V14.01,2013-03-11 07:16:00,
2013-03-11 03:21:00,34.8,34.3,29.76,SE,127,20.0,27.0,98,0.36,,---,1.55,VWS V14.01,2013-03-11 07:21:00,
2013-03-11 03:26:00,34.8,34.3,29.75,SE,129,11.0,27.0,98,0.37,,---,1.56,VWS V14.01,2013-03-11 07:26:00,
2013-03-11 03:30:00,34.8,34.3,29.75,ESE,123,14.0,27.0,98,0.38,,---,1.57,VWS V15.00,2013-03-11 07:30:00,
2013-03-11 03:31:00,34.8,34.3,29.75,ESE,108,17.0,17.0,98,0.29,,---,1.57,VWS V14.01,2013-03-11 07:31:00,
2013-03-11 03:36:00,34.8,34.3,29.74,ESE,119,9.0,24.0,98,0.30,,---,1.58,VWS V14.01,2013-03-11 07:36:00,
2013-03-11 03:41:00,34.8,34.3,29.74,ESE,110,20.0,29.0,98,0.33,,---,1.61,VWS V14.01,2013-03-11 07:41:00,
2013-03-11 03:46:00,34.9,34.4,29.74,ESE,114,23.0,29.0,98,0.38,,---,1.66,VWS V14.01,2013-03-11 07:46:00,
2013-03-11 03:51:00,34.8,34.3,29.73,NE,34,21.0,29.0,98,0.43,,---,1.71,VWS V14.01,2013-03-11 07:51:00,
2013-03-11 03:56:00,34.8,34.0,29.73,NE,46,15.0,30.0,97,0.44,,---,1.72,VWS V14.01,2013-03-11 07:56:00,
2013-03-11 04:00:00,34.8,34.3,29.73,ENE,61,17.0,30.0,98,0.45,,---,1.73,VWS V15.00,2013-03-11 08:00:00,
2013-03-11 04:01:00,34.8,34.3,29.73,NE,54,18.0,22.0,98,0.26,,---,1.73,VWS V14.01,2013-03-11 08:01:00,
2013-03-11 04:06:00,34.7,33.9,29.73,NE,37,13.0,29.0,97,0.26,,---,1.73,VWS V14.01,2013-03-11 08:06:00,
2013-03-11 04:11:00,34.6,33.8,29.72,NE,48,18.0,29.0,97,0.26,,---,1.73,VWS V14.01,2013-03-11 08:11:00,
2013-03-11 04:16:00,34.5,33.7,29.72,NE,44,17.0,29.0,97,0.27,,---,1.74,VWS V14.01,2013-03-11 08:16:00,
2013-03-11 04:21:00,34.6,33.8,29.72,ENE,73,10.0,29.0,97,0.27,,---,1.74,VWS V14.01,2013-03-11 08:21:00,
2013-03-11 04:27:00,34.7,33.9,29.72,NE,48,27.0,30.0,97,0.27,,---,1.74,VWS V14.01,2013-03-11 08:27:00,
2013-03-11 04:30:00,34.7,34.2,29.71,ENE,75,17.0,32.0,98,0.28,,---,1.75,VWS V15.00,2013-03-11 08:30:00,
2013-03-11 04:32:00,34.7,34.2,29.71,ENE,58,26.0,27.0,98,0.18,,---,1.75,VWS V14.01,2013-03-11 08:32:00,
2013-03-11 04:37:00,34.6,33.8,29.70,ENE,61,20.0,28.0,97,0.18,,---,1.75,VWS V14.01,2013-03-11 08:37:00,
2013-03-11 04:42:00,34.7,34.2,29.70,ENE,57,24.0,36.0,98,0.19,,---,1.76,VWS V14.01,2013-03-11 08:42:00,
2013-03-11 04:47:00,34.6,33.8,29.70,NE,51,26.0,36.0,97,0.19,,---,1.76,VWS V14.01,2013-03-11 08:47:00,
2013-03-11 04:52:00,34.7,33.9,29.69,NE,41,25.0,36.0,97,0.19,,---,1.76,VWS V14.01,2013-03-11 08:52:00,
2013-03-11 04:57:00,34.7,33.9,29.70,NE,37,30.0,36.0,97,0.19,,---,1.76,VWS V14.01,2013-03-11 08:57:00,
2013-03-11 05:00:00,34.8,34.0,29.70,ENE,58,27.0,38.0,97,0.19,,---,1.76,VWS V15.00,2013-03-11 09:00:00,
2013-03-11 05:02:00,34.7,33.9,29.70,NE,54,24.0,30.0,97,0.03,,---,1.76,VWS V14.01,2013-03-11 09:02:00,
2013-03-11 05:07:00,34.7,33.9,29.69,NE,38,23.0,37.0,97,0.03,,---,1.76,VWS V14.01,2013-03-11 09:07:00,
2013-03-11 05:12:00,34.6,33.8,29.69,ENE,61,23.0,38.0,97,0.03,,---,1.76,VWS V14.01,2013-03-11 09:12:00,
2013-03-11 05:17:00,34.5,33.7,29.68,NE,43,31.0,38.0,97,0.03,,---,1.76,VWS V14.01,2013-03-11 09:17:00,
2013-03-11 05:22:00,34.5,33.7,29.68,NE,50,38.0,38.0,97,0.03,,---,1.76,VWS V14.01,2013-03-11 09:22:00,
2013-03-11 05:27:00,34.6,33.8,29.68,ENE,63,17.0,38.0,97,0.03,,---,1.76,VWS V14.01,2013-03-11 09:27:00,
2013-03-11 05:30:00,34.5,33.7,29.68,NE,51,18.0,38.0,97,0.03,,---,1.76,VWS V15.00,2013-03-11 09:30:00,
2013-03-11 05:32:00,34.6,33.8,29.67,NE,38,27.0,27.0,97,0.01,,---,1.76,VWS V14.01,2013-03-11 09:32:00,
2013-03-11 05:37:00,34.5,33.7,29.67,NE,45,31.0,31.0,97,0.01,,---,1.76,VWS V14.01,2013-03-11 09:37:00,
2013-03-11 05:42:00,34.6,34.1,29.68,NE,56,19.0,31.0,98,0.01,,---,1.76,VWS V14.01,2013-03-11 09:42:00,
2013-03-11 05:47:00,34.7,33.9,29.68,NE,52,17.0,31.0,97,0.02,,---,1.77,VWS V14.01,2013-03-11 09:47:00,
2013-03-11 05:52:00,34.6,33.8,29.67,NE,52,21.0,31.0,97,0.02,,---,1.77,VWS V14.01,2013-03-11 09:52:00,
2013-03-11 05:57:00,34.6,34.1,29.67,NE,35,21.0,31.0,98,0.02,,---,1.77,VWS V14.01,2013-03-11 09:57:00,
2013-03-11 06:00:00,34.6,34.1,29.67,NE,49,17.0,31.0,98,0.02,,---,1.77,VWS V15.00,2013-03-11 10:00:00,
2013-03-11 06:02:00,34.6,33.8,29.68,NE,52,18.0,22.0,97,0.01,,---,1.77,VWS V14.01,2013-03-11 10:02:00,
2013-03-11 06:07:00,34.6,33.8,29.67,NE,52,22.0,26.0,97,0.01,,---,1.77,VWS V14.01,2013-03-11 10:07:00,
2013-03-11 06:13:00,34.5,33.7,29.67,NE,47,26.0,31.0,97,0.01,,---,1.77,VWS V14.01,2013-03-11 10:13:00,
2013-03-11 06:18:00,34.4,33.6,29.66,NE,54,23.0,31.0,97,0.01,,---,1.77,VWS V14.01,2013-03-11 10:18:00,
2013-03-11 06:23:00,34.3,33.5,29.66,NE,46,22.0,31.0,97,0.01,,---,1.77,VWS V14.01,2013-03-11 10:23:00,
2013-03-11 06:28:00,34.3,33.5,29.67,NE,56,23.0,31.0,97,0.01,,---,1.77,VWS V14.01,2013-03-11 10:28:00,
2013-03-11 06:30:00,34.3,33.5,29.66,NE,56,25.0,31.0,97,0.01,,---,1.77,VWS V15.00,2013-03-11 10:30:00,
2013-03-11 06:33:00,34.3,33.5,29.67,NE,50,21.0,31.0,97,0.01,,---,1.77,VWS V14.01,2013-03-11 10:33:00,
2013-03-11 06:38:00,34.3,33.5,29.67,ENE,65,14.0,31.0,97,0.01,,---,1.77,VWS V14.01,2013-03-11 10:38:00,
2013-03-11 06:43:00,34.2,33.4,29.67,NE,52,25.0,34.0,97,0.01,,---,1.77,VWS V14.01,2013-03-11 10:43:00,
2013-03-11 06:48:00,34.2,33.4,29.67,NE,36,20.0,34.0,97,0.01,,---,1.77,VWS V14.01,2013-03-11 10:48:00,
2013-03-11 06:53:00,34.1,33.3,29.67,NE,48,22.0,34.0,97,0.01,,---,1.77,VWS V14.01,2013-03-11 10:53:00,
2013-03-11 06:58:00,34.1,33.3,29.67,ENE,73,21.0,34.0,97,0.01,,---,1.77,VWS V14.01,2013-03-11 10:58:00,
2013-03-11 07:00:00,34.0,33.2,29.67,ENE,75,14.0,34.0,97,0.01,,---,1.77,VWS V15.00,2013-03-11 11:00:00,
2013-03-11 07:03:00,34.0,33.2,29.66,NE,54,19.0,24.0,97,0.00,,---,1.77,VWS V14.01,2013-03-11 11:03:00,
2013-03-11 07:08:00,34.0,33.2,29.65,ENE,58,23.0,33.0,97,0.00,,---,1.77,VWS V14.01,2013-03-11 11:08:00,
2013-03-11 07:13:00,33.9,33.1,29.67,ENE,65,15.0,33.0,97,0.00,,---,1.77,VWS V14.01,2013-03-11 11:13:00,
2013-03-11 07:18:00,33.9,33.1,29.66,ENE,66,16.0,33.0,97,0.00,,---,1.77,VWS V14.01,2013-03-11 11:18:00,
2013-03-11 07:23:00,34.0,33.2,29.66,NE,52,17.0,33.0,97,0.00,,---,1.77,VWS V14.01,2013-03-11 11:23:00,
2013-03-11 07:28:00,34.0,33.5,29.66,NE,37,23.0,33.0,98,0.00,,---,1.77,VWS V14.01,2013-03-11 11:28:00,
2013-03-11 07:30:00,34.0,33.5,29.66,NE,56,16.0,33.0,98,0.00,,---,1.77,VWS V15.00,2013-03-11 11:30:00,
2013-03-11 07:33:00,33.9,33.4,29.65,NE,47,14.0,25.0,98,0.00,,---,1.77,VWS V14.01,2013-03-11 11:33:00,
2013-03-11 07:38:00,33.9,33.4,29.65,NNE,33,17.0,25.0,98,0.00,,---,1.77,VWS V14.01,2013-03-11 11:38:00,
2013-03-11 07:43:00,34.0,33.5,29.64,NE,54,16.0,28.0,98,0.00,,---,1.77,VWS V14.01,2013-03-11 11:43:00,
2013-03-11 07:48:00,33.9,33.4,29.64,NE,40,17.0,28.0,98,0.00,,---,1.77,VWS V14.01,2013-03-11 11:48:00,
2013-03-11 07:53:00,34.0,33.5,29.64,NE,48,17.0,28.0,98,0.00,,---,1.77,VWS V14.01,2013-03-11 11:53:00,
2013-03-11 07:58:00,34.0,33.5,29.64,NE,50,23.0,28.0,98,0.00,,---,1.77,VWS V14.01,2013-03-11 11:58:00,
2013-03-11 08:00:00,34.0,33.5,29.63,NE,54,17.0,28.0,98,0.00,,---,1.77,VWS V15.00,2013-03-11 12:00:00,
2013-03-11 08:04:00,33.9,33.4,29.63,ENE,72,17.0,26.0,98,0.00,,---,1.77,VWS V14.01,2013-03-11 12:04:00,
2013-03-11 08:09:00,33.9,33.4,29.63,NE,44,16.0,26.0,98,0.00,,---,1.77,VWS V14.01,2013-03-11 12:09:00,
2013-03-11 08:14:00,33.9,33.4,29.64,NE,52,16.0,26.0,98,0.00,,---,1.77,VWS V14.01,2013-03-11 12:14:00,
2013-03-11 08:19:00,33.9,33.4,29.63,ENE,58,19.0,26.0,98,0.00,,---,1.77,VWS V14.01,2013-03-11 12:19:00,
2013-03-11 08:24:00,33.9,33.4,29.63,NE,56,15.0,26.0,98,0.00,,---,1.77,VWS V14.01,2013-03-11 12:24:00,
2013-03-11 08:29:00,33.9,33.4,29.64,NE,56,15.0,26.0,98,0.00,,---,1.77,VWS V14.01,2013-03-11 12:29:00,
2013-03-11 08:30:00,33.9,33.4,29.64,NE,40,14.0,26.0,98,0.00,,---,1.77,VWS V15.00,2013-03-11 12:30:00,
2013-03-11 08:34:00,33.9,33.4,29.64,NE,52,17.0,18.0,98,0.00,,---,1.77,VWS V14.01,2013-03-11 12:34:00,
2013-03-11 08:39:00,33.9,33.4,29.63,ENE,57,13.0,20.0,98,0.00,,---,1.77,VWS V14.01,2013-03-11 12:39:00,
2013-03-11 08:44:00,34.1,33.6,29.64,NE,52,16.0,20.0,98,0.00,,---,1.77,VWS V14.01,2013-03-11 12:44:00,
2013-03-11 08:49:00,34.1,33.6,29.64,NE,45,19.0,20.0,98,0.00,,---,1.77,VWS V14.01,2013-03-11 12:49:00,
2013-03-11 08:54:00,34.1,33.6,29.64,NE,52,17.0,22.0,98,0.00,,---,1.77,VWS V14.01,2013-03-11 12:54:00,
2013-03-11 08:59:00,34.0,33.5,29.64,NE,50,16.0,22.0,98,0.00,,---,1.77,VWS V14.01,2013-03-11 12:59:00,
2013-03-11 09:00:00,34.0,33.5,29.64,NNE,23,12.0,22.0,98,0.00,,---,1.77,VWS V15.00,2013-03-11 13:00:00,
2013-03-11 09:04:00,34.0,33.5,29.63,NE,46,18.0,21.0,98,0.00,,---,1.77,VWS V14.01,2013-03-11 13:04:00,
2013-03-11 09:09:00,34.0,33.5,29.63,NE,40,24.0,24.0,98,0.00,,---,1.77,VWS V14.01,2013-03-11 13:09:00,
2013-03-11 09:14:00,34.0,33.5,29.64,ENE,73,13.0,24.0,98,0.00,,---,1.77,VWS V14.01,2013-03-11 13:14:00,
2013-03-11 09:19:00,34.0,33.5,29.63,NE,51,14.0,24.0,98,0.00,,---,1.77,VWS V14.01,2013-03-11 13:19:00,
2013-03-11 09:24:00,34.1,33.6,29.63,NE,48,13.0,24.0,98,0.00,,---,1.77,VWS V14.01,2013-03-11 13:24:00,
2013-03-11 09:29:00,34.1,33.6,29.63,ENE,68,15.0,24.0,98,0.00,,---,1.77,VWS V14.01,2013-03-11 13:29:00,
2013-03-11 09:30:00,34.1,33.6,29.63,ENE,74,11.0,24.0,98,0.00,,---,1.77,VWS V15.00,2013-03-11 13:30:00,
2013-03-11 09:34:00,34.1,33.6,29.63,ENE,65,15.0,16.0,98,0.00,,---,1.77,VWS V14.01,2013-03-11 13:34:00,
2013-03-11 09:39:00,34.2,33.7,29.63,NE,46,14.0,18.0,98,0.00,,---,1.77,VWS V14.01,2013-03-11 13:39:00,
2013-03-11 09:44:00,34.3,33.8,29.62,ENE,58,10.0,18.0,98,0.00,,---,1.77,VWS V14.01,2013-03-11 13:44:00,
2013-03-11 09:49:00,34.3,33.8,29.62,ENE,65,13.0,18.0,98,0.00,,---,1.77,VWS V14.01,2013-03-11 13:49:00,
2013-03-11 09:54:00,34.5,34.0,29.61,ESE,115,6.0,20.0,98,0.73,,---,2.50,VWS V14.01,2013-03-11 13:54:00,
2013-03-11 09:59:00,34.5,34.0,29.61,SE,125,5.0,20.0,98,0.73,,---,2.50,VWS V14.01,2013-03-11 13:59:00,
2013-03-11 10:00:00,34.6,34.1,29.61,ESE,102,18.0,20.0,98,0.73,,---,2.50,VWS V15.00,2013-03-11 14:00:00,
2013-03-11 10:04:00,34.6,34.1,29.61,ESE,115,12.0,16.0,98,0.73,,---,2.50,VWS V14.01,2013-03-11 14:04:00,
2013-03-11 10:09:00,34.8,34.3,29.60,ESE,116,8.0,17.0,98,0.74,,---,2.51,VWS V14.01,2013-03-11 14:09:00,
2013-03-11 10:14:00,34.8,34.3,29.61,ESE,117,8.0,17.0,98,0.75,,---,2.52,VWS V14.01,2013-03-11 14:14:00,
2013-03-11 10:19:00,35.0,34.5,29.62,SE,135,5.0,17.0,98,0.76,,---,2.53,VWS V14.01,2013-03-11 14:19:00,
2013-03-11 10:24:00,35.0,34.5,29.61,SE,125,9.0,17.0,98,0.84,,---,2.62,VWS V14.01,2013-03-11 14:24:00,
2013-03-11 10:29:00,35.1,34.6,29.62,SSE,159,2.0,17.0,98,0.91,,---,2.68,VWS V14.01,2013-03-11 14:29:00,
2013-03-11 10:30:00,35.1,34.6,29.62,ESE,104,6.0,17.0,98,0.92,,---,2.69,VWS V15.00,2013-03-11 14:30:00,
2013-03-11 10:34:00,35.1,34.6,29.63,SE,136,2.0,7.0,98,0.94,,---,2.71,VWS V14.01,2013-03-11 14:34:00,
2013-03-11 10:39:00,35.1,34.6,29.61,ESE,123,7.0,9.0,98,0.95,,---,2.72,VWS V14.01,2013-03-11 14:39:00,
2013-03-11 10:44:00,35.1,34.6,29.61,SE,127,8.0,11.0,98,0.96,,---,2.73,VWS V14.01,2013-03-11 14:44:00,
2013-03-11 10:49:00,35.2,34.7,29.61,ESE,113,4.0,12.0,98,0.99,,---,2.76,VWS V14.01,2013-03-11 14:49:00,
2013-03-11 10:54:00,35.3,35.0,29.62,ESE,109,3.0,12.0,99,0.99,,---,2.76,VWS V14.01,2013-03-11 14:54:00,
2013-03-11 10:59:00,35.4,35.2,29.61,ESE,110,5.0,12.0,99,1.01,,---,2.78,VWS V14.01,2013-03-11 14:59:00,
2013-03-11 11:00:00,35.4,35.2,29.61,ESE,119,8.0,12.0,99,1.02,,---,2.79,VWS V15.00,2013-03-11 15:00:00,
2013-03-11 11:04:00,35.4,35.2,29.61,ESE,113,6.0,9.0,99,0.31,,---,2.81,VWS V14.01,2013-03-11 15:04:00,
2013-03-11 11:09:00,35.4,35.2,29.61,ESE,121,9.0,10.0,99,0.41,,---,2.92,VWS V14.01,2013-03-11 15:09:00,
2013-03-11 11:14:00,35.4,35.2,29.61,ESE,110,6.0,10.0,99,0.44,,---,2.94,VWS V14.01,2013-03-11 15:14:00,
2013-03-11 11:19:00,35.4,35.2,29.59,East,100,11.0,11.0,99,0.46,,---,2.96,VWS V14.01,2013-03-11 15:19:00,
2013-03-11 11:24:00,35.4,35.2,29.59,East,96,9.0,13.0,99,0.50,,---,3.00,VWS V14.01,2013-03-11 15:24:00,
2013-03-11 11:29:00,35.5,35.2,29.60,ESE,113,8.0,14.0,99,0.57,,---,3.07,VWS V14.01,2013-03-11 15:29:00,
2013-03-11 11:30:00,35.5,35.2,29.60,ESE,114,9.0,14.0,99,0.58,,---,3.08,VWS V15.00,2013-03-11 15:30:00,
2013-03-11 11:34:00,35.5,35.2,29.58,East,89,6.0,14.0,99,0.43,,---,3.12,VWS V14.01,2013-03-11 15:34:00,
2013-03-11 11:39:00,35.5,35.2,29.59,ESE,110,14.0,14.0,99,0.44,,---,3.13,VWS V14.01,2013-03-11 15:39:00,
2013-03-11 11:44:00,35.5,35.2,29.59,ESE,106,8.0,14.0,99,0.44,,---,3.13,VWS V14.01,2013-03-11 15:44:00,
2013-03-11 11:50:00,35.5,35.2,29.58,ESE,105,9.0,14.0,99,0.45,,---,3.14,VWS V14.01,2013-03-11 15:50:00,
2013-03-11 11:55:00,35.7,35.2,29.57,ESE,108,8.0,14.0,98,0.46,,---,3.16,VWS V14.01,2013-03-11 15:55:00,
2013-03-11 12:00:00,36.1,35.6,29.58,ESE,115,9.0,15.0,98,0.49,,---,3.18,VWS V14.01,2013-03-11 16:00:00,
2013-03-11 12:05:00,36.2,35.7,29.59,SE,131,4.0,11.0,98,0.40,,---,3.19,VWS V14.01,2013-03-11 16:05:00,
2013-03-11 12:10:00,36.1,35.6,29.59,ESE,119,2.0,12.0,98,0.40,,---,3.19,VWS V14.01,2013-03-11 16:10:00,
2013-03-11 12:15:00,36.3,35.8,29.58,ESE,115,7.0,12.0,98,0.40,,---,3.19,VWS V14.01,2013-03-11 16:15:00,
2013-03-11 12:20:00,36.3,36.0,29.59,ESE,117,4.0,12.0,99,0.40,,---,3.19,VWS V14.01,2013-03-11 16:20:00,
2013-03-11 12:25:00,36.3,36.0,29.59,ESE,108,8.0,12.0,99,0.40,,---,3.19,VWS V14.01,2013-03-11 16:25:00,
2013-03-11 12:30:00,36.3,36.0,29.58,ESE,107,7.0,12.0,99,0.40,,---,3.19,VWS V14.01,2013-03-11 16:30:00,
2013-03-11 12:35:00,36.2,35.7,29.57,East,92,4.0,12.0,98,0.11,,---,3.19,VWS V14.01,2013-03-11 16:35:00,
2013-03-11 12:40:00,36.2,35.7,29.57,East,92,4.0,12.0,98,0.11,,---,3.19,VWS V14.01,2013-03-11 16:40:00,
2013-03-11 12:45:00,36.3,36.0,29.57,East,89,7.0,12.0,99,0.11,,---,3.19,VWS V14.01,2013-03-11 16:45:00,
2013-03-11 12:50:00,36.3,36.0,29.57,ESE,106,6.0,12.0,99,0.11,,---,3.19,VWS V14.01,2013-03-11 16:50:00,
2013-03-11 12:55:00,36.3,36.0,29.57,East,94,6.0,12.0,99,0.11,,---,3.19,VWS V14.01,2013-03-11 16:55:00,
2013-03-11 13:00:00,36.4,36.2,29.57,East,96,6.0,12.0,99,0.11,,---,3.19,VWS V14.01,2013-03-11 17:00:00,
2013-03-11 13:05:00,36.3,36.0,29.57,East,99,2.0,10.0,99,0.00,,---,3.19,VWS V14.01,2013-03-11 17:05:00,
2013-03-11 13:10:00,36.4,36.2,29.56,ESE,113,5.0,10.0,99,0.00,,---,3.19,VWS V14.01,2013-03-11 17:10:00,
2013-03-11 13:15:00,36.2,35.7,29.57,East,98,11.0,12.0,98,0.00,,---,3.19,VWS V14.01,2013-03-11 17:15:00,
2013-03-11 13:20:00,36.1,35.6,29.56,ESE,104,6.0,12.0,98,0.00,,---,3.19,VWS V14.01,2013-03-11 17:20:00,
2013-03-11 13:25:00,36.1,35.6,29.56,East,100,6.0,12.0,98,0.00,,---,3.19,VWS V14.01,2013-03-11 17:25:00,
2013-03-11 13:30:00,36.1,35.6,29.56,East,94,10.0,12.0,98,0.00,,---,3.19,VWS V14.01,2013-03-11 17:30:00,
2013-03-11 13:35:00,36.2,35.7,29.56,ESE,108,7.0,11.0,98,0.00,,---,3.19,VWS V14.01,2013-03-11 17:35:00,
2013-03-11 13:40:00,36.2,35.7,29.55,ESE,102,6.0,11.0,98,0.00,,---,3.19,VWS V14.01,2013-03-11 17:40:00,
2013-03-11 13:45:00,36.3,36.0,29.55,East,98,6.0,11.0,99,0.00,,---,3.19,VWS V14.01,2013-03-11 17:45:00,
2013-03-11 13:50:00,36.5,36.2,29.55,East,96,6.0,11.0,99,0.00,,---,3.19,VWS V14.01,2013-03-11 17:50:00,
2013-03-11 13:55:00,36.7,36.2,29.55,ESE,102,8.0,11.0,98,0.00,,---,3.19,VWS V14.01,2013-03-11 17:55:00,
2013-03-11 14:00:00,36.9,36.4,29.55,ESE,102,5.0,11.0,98,0.00,,---,3.19,VWS V14.01,2013-03-11 18:00:00,
2013-03-11 14:05:00,36.9,36.7,29.55,ESE,104,6.0,9.0,99,0.00,,---,3.19,VWS V14.01,2013-03-11 18:05:00,
2013-03-11 14:10:00,37.0,36.8,29.54,East,98,6.0,9.0,99,0.00,,---,3.19,VWS V14.01,2013-03-11 18:10:00,
2013-03-11 14:15:00,37.1,36.8,29.53,East,92,2.0,9.0,99,0.00,,---,3.19,VWS V14.01,2013-03-11 18:15:00,
2013-03-11 14:20:00,37.3,37.0,29.54,East,98,5.0,9.0,99,0.00,,---,3.19,VWS V14.01,2013-03-11 18:20:00,
2013-03-11 14:25:00,37.5,37.2,29.54,ESE,117,6.0,9.0,99,0.00,,---,3.19,VWS V14.01,2013-03-11 18:25:00,
2013-03-11 14:30:00,37.7,37.5,29.54,ESE,112,1.0,9.0,99,0.00,,---,3.19,VWS V14.01,2013-03-11 18:30:00,
2013-03-11 14:35:00,38.0,37.7,29.54,ESE,104,6.0,6.0,99,0.00,,---,3.19,VWS V14.01,2013-03-11 18:35:00,
2013-03-11 14:40:00,38.1,37.8,29.54,ESE,108,7.0,8.0,99,0.00,,---,3.19,VWS V14.01,2013-03-11 18:40:00,
2013-03-11 14:45:00,38.1,37.8,29.53,East,94,2.0,9.0,99,0.00,,---,3.19,VWS V14.01,2013-03-11 18:45:00,
2013-03-11 14:50:00,38.3,38.0,29.53,East,86,2.0,9.0,99,0.00,,---,3.19,VWS V14.01,2013-03-11 18:50:00,
2013-03-11 14:55:00,38.2,37.9,29.53,East,90,5.0,9.0,99,0.00,,---,3.19,VWS V14.01,2013-03-11 18:55:00,
2013-03-11 15:00:00,38.3,38.0,29.53,East,100,7.0,9.0,99,0.00,,---,3.19,VWS V14.01,2013-03-11 19:00:00,
2013-03-11 15:05:00,38.5,38.2,29.53,ESE,113,7.0,10.0,99,0.00,,---,3.19,VWS V14.01,2013-03-11 19:05:00,
2013-03-11 15:10:00,38.6,38.3,29.53,ESE,110,5.0,10.0,99,0.00,,---,3.19,VWS V14.01,2013-03-11 19:10:00,
2013-03-11 15:15:00,38.6,38.3,29.52,ESE,103,11.0,11.0,99,0.00,,---,3.19,VWS V14.01,2013-03-11 19:15:00,
2013-03-11 15:20:00,38.6,38.3,29.52,East,79,8.0,11.0,99,0.00,,---,3.19,VWS V14.01,2013-03-11 19:20:00,
2013-03-11 15:25:00,38.6,38.3,29.51,East,91,6.0,12.0,99,0.00,,---,3.19,VWS V14.01,2013-03-11 19:25:00,
2013-03-11 15:30:00,38.7,38.4,29.51,East,94,10.0,12.0,99,0.00,,---,3.19,VWS V14.01,2013-03-11 19:30:00,
2013-03-11 15:35:00,38.8,38.5,29.50,East,101,7.0,13.0,99,0.00,,---,3.19,VWS V14.01,2013-03-11 19:35:00,
2013-03-11 15:40:00,38.9,38.6,29.50,East,94,9.0,13.0,99,0.00,,---,3.19,VWS V14.01,2013-03-11 19:40:00,
2013-03-11 15:45:00,39.1,38.8,29.51,East,96,6.0,13.0,99,0.00,,---,3.19,VWS V14.01,2013-03-11 19:45:00,
2013-03-11 15:50:00,39.1,38.8,29.51,ESE,102,6.0,13.0,99,0.00,,---,3.19,VWS V14.01,2013-03-11 19:50:00,
2013-03-11 15:55:00,39.3,39.0,29.51,ESE,105,6.0,13.0,99,0.00,,---,3.19,VWS V14.01,2013-03-11 19:55:00,
2013-03-11 16:00:00,39.2,38.9,29.51,ESE,113,2.0,13.0,99,0.00,,---,3.19,VWS V14.01,2013-03-11 20:00:00,
2013-03-11 16:05:00,39.0,38.7,29.51,ESE,111,6.0,11.0,99,0.00,,---,3.19,VWS V14.01,2013-03-11 20:05:00,
2013-03-11 16:10:00,38.9,38.6,29.51,ESE,106,11.0,11.0,99,0.00,,---,3.19,VWS V14.01,2013-03-11 20:10:00,
2013-03-11 16:15:00,39.0,38.7,29.50,ESE,110,8.0,12.0,99,0.00,,---,3.19,VWS V14.01,2013-03-11 20:15:00,
2013-03-11 16:20:00,39.0,38.7,29.50,ESE,111,10.0,12.0,99,0.00,,---,3.19,VWS V14.01,2013-03-11 20:20:00,
2013-03-11 16:25:00,39.1,38.6,29.49,ESE,111,8.0,12.0,98,0.00,,---,3.19,VWS V14.01,2013-03-11 20:25:00,
2013-03-11 16:30:00,39.4,39.1,29.49,East,86,10.0,12.0,99,0.00,,---,3.19,VWS V14.01,2013-03-11 20:30:00,
2013-03-11 16:35:00,39.6,39.3,29.49,East,93,9.0,12.0,99,0.00,,---,3.19,VWS V14.01,2013-03-11 20:35:00,
2013-03-11 16:40:00,39.7,39.2,29.49,East,88,5.0,12.0,98,0.00,,---,3.19,VWS V14.01,2013-03-11 20:40:00,
2013-03-11 16:45:00,39.8,39.5,29.48,East,97,10.0,12.0,99,0.00,,---,3.19,VWS V14.01,2013-03-11 20:45:00,
2013-03-11 16:50:00,39.6,39.1,29.47,ESE,106,9.0,12.0,98,0.00,,---,3.19,VWS V14.01,2013-03-11 20:50:00,
2013-03-11 16:56:00,39.5,39.2,29.47,East,89,9.0,12.0,99,0.00,,---,3.19,VWS V14.01,2013-03-11 20:56:00,
2013-03-11 17:00:00,39.2,38.7,29.47,East,94,5.0,12.0,98,0.00,,---,3.19,VWS V15.00,2013-03-11 21:00:00,
2013-03-11 17:01:00,39.2,38.9,29.47,ESE,106,3.0,12.0,99,0.00,,---,3.19,VWS V14.01,2013-03-11 21:01:00,
2013-03-11 17:06:00,39.1,38.6,29.46,SE,125,3.0,10.0,98,0.00,,---,3.19,VWS V14.01,2013-03-11 21:06:00,
2013-03-11 17:11:00,39.1,38.6,29.46,East,79,8.0,11.0,98,0.00,,---,3.19,VWS V14.01,2013-03-11 21:11:00,
2013-03-11 17:16:00,38.8,38.3,29.45,East,94,11.0,12.0,98,0.00,,---,3.19,VWS V14.01,2013-03-11 21:16:00,
2013-03-11 17:21:00,38.6,38.1,29.46,East,97,4.0,12.0,98,0.00,,---,3.19,VWS V14.01,2013-03-11 21:21:00,
2013-03-11 17:26:00,38.4,37.9,29.45,East,89,9.0,12.0,98,0.00,,---,3.19,VWS V14.01,2013-03-11 21:26:00,
2013-03-11 17:30:00,38.2,37.7,29.46,East,98,7.0,12.0,98,0.00,,---,3.19,VWS V15.00,2013-03-11 21:30:00,
2013-03-11 17:31:00,38.2,37.7,29.46,East,98,7.0,12.0,98,0.00,,---,3.19,VWS V14.01,2013-03-11 21:31:00,
2013-03-11 17:36:00,38.2,37.7,29.45,East,79,10.0,11.0,98,0.00,,---,3.19,VWS V14.01,2013-03-11 21:36:00,
2013-03-11 17:41:00,38.0,37.5,29.45,East,100,11.0,13.0,98,0.00,,---,3.19,VWS V14.01,2013-03-11 21:41:00,
2013-03-11 17:46:00,37.9,37.4,29.45,East,94,11.0,13.0,98,0.00,,---,3.19,VWS V14.01,2013-03-11 21:46:00,
2013-03-11 17:51:00,37.8,37.3,29.44,East,97,14.0,14.0,98,0.00,,---,3.19,VWS V14.01,2013-03-11 21:51:00,
2013-03-11 17:56:00,37.6,37.1,29.45,ESE,113,13.0,14.0,98,0.00,,---,3.19,VWS V14.01,2013-03-11 21:56:00,
2013-03-11 18:00:00,37.5,37.0,29.45,ESE,112,9.0,14.0,98,0.00,,---,3.19,VWS V15.00,2013-03-11 22:00:00,
2013-03-11 18:01:00,37.5,37.0,29.45,ESE,117,6.0,9.0,98,0.00,,---,3.19,VWS V14.01,2013-03-11 22:01:00,
2013-03-11 18:07:00,37.3,36.8,29.45,ESE,107,10.0,12.0,98,0.00,,---,3.19,VWS V14.01,2013-03-11 22:07:00,
2013-03-11 18:12:00,37.2,36.7,29.45,ESE,109,10.0,12.0,98,0.00,,---,3.19,VWS V14.01,2013-03-11 22:12:00,
2013-03-11 18:17:00,37.3,36.8,29.45,East,99,11.0,12.0,98,0.00,,---,3.19,VWS V14.01,2013-03-11 22:17:00,
2013-03-11 18:22:00,37.3,36.8,29.45,ESE,103,10.0,12.0,98,0.00,,---,3.19,VWS V14.01,2013-03-11 22:22:00,
2013-03-11 18:27:00,37.4,36.9,29.44,East,94,14.0,14.0,98,0.00,,---,3.19,VWS V14.01,2013-03-11 22:27:00,
2013-03-11 18:30:00,37.4,37.2,29.44,East,97,15.0,16.0,99,0.00,,---,3.19,VWS V15.00,2013-03-11 22:30:00,
2013-03-11 18:32:00,37.4,37.2,29.44,ESE,104,16.0,16.0,99,0.00,,---,3.19,VWS V14.01,2013-03-11 22:32:00,
2013-03-11 18:37:00,37.5,37.2,29.43,SE,125,6.0,16.0,99,0.00,,---,3.19,VWS V14.01,2013-03-11 22:37:00,
2013-03-11 18:42:00,37.5,37.0,29.43,East,87,11.0,16.0,98,0.00,,---,3.19,VWS V14.01,2013-03-11 22:42:00,
2013-03-11 18:47:00,37.5,37.2,29.43,East,83,8.0,16.0,99,0.00,,---,3.19,VWS V14.01,2013-03-11 22:47:00,
2013-03-11 18:52:00,37.6,37.3,29.44,East,101,10.0,17.0,99,0.00,,---,3.19,VWS V14.01,2013-03-11 22:52:00,
2013-03-11 18:57:00,37.6,37.3,29.44,ESE,106,12.0,17.0,99,0.00,,---,3.19,VWS V14.01,2013-03-11 22:57:00,
2013-03-11 19:00:00,37.5,37.2,29.44,East,92,9.0,17.0,99,0.00,,---,3.19,VWS V15.00,2013-03-11 23:00:00,
2013-03-11 19:02:00,37.5,37.2,29.44,ESE,109,5.0,11.0,99,0.00,,---,3.19,VWS V14.01,2013-03-11 23:02:00,
2013-03-11 19:07:00,37.5,37.2,29.44,ESE,103,7.0,15.0,99,0.00,,---,3.19,VWS V14.01,2013-03-11 23:07:00,
2013-03-11 19:12:00,37.5,37.2,29.44,East,97,10.0,15.0,99,0.00,,---,3.19,VWS V14.01,2013-03-11 23:12:00,
2013-03-11 19:17:00,37.6,37.3,29.44,East,98,7.0,15.0,99,0.00,,---,3.19,VWS V14.01,2013-03-11 23:17:00,
2013-03-11 19:22:00,37.7,37.5,29.44,ESE,103,4.0,15.0,99,0.00,,---,3.19,VWS V14.01,2013-03-11 23:22:00,
2013-03-11 19:27:00,37.8,37.5,29.43,East,101,11.0,15.0,99,0.01,,---,3.20,VWS V14.01,2013-03-11 23:27:00,
2013-03-11 19:30:00,37.9,37.7,29.43,East,92,11.0,15.0,99,0.01,,---,3.20,VWS V15.00,2013-03-11 23:30:00,
2013-03-11 19:32:00,37.9,37.6,29.43,East,92,8.0,11.0,99,0.01,,---,3.20,VWS V14.01,2013-03-11 23:32:00,
2013-03-11 19:37:00,38.0,37.7,29.43,East,89,9.0,15.0,99,0.03,,---,3.22,VWS V14.01,2013-03-11 23:37:00,
2013-03-11 19:42:00,38.2,37.9,29.42,ESE,108,8.0,15.0,99,0.08,,---,3.27,VWS V14.01,2013-03-11 23:42:00,
2013-03-11 19:47:00,38.3,38.0,29.42,East,92,9.0,15.0,99,0.13,,---,3.32,VWS V14.01,2013-03-11 23:47:00,
2013-03-11 19:52:00,38.3,38.0,29.43,East,101,6.0,15.0,99,0.19,,---,3.38,VWS V14.01,2013-03-11 23:52:00,
2013-03-11 19:57:00,38.2,37.9,29.43,East,92,7.0,15.0,99,0.21,,---,3.40,VWS V14.01,2013-03-11 23:57:00,
2013-03-11 20:00:00,38.2,37.9,29.43,East,99,8.0,15.0,99,0.22,,---,3.41,VWS V15.00,2013-03-12 00:00:00,
2013-03-11 20:02:00,38.2,37.9,29.43,East,94,10.0,10.0,99,0.23,,---,3.42,VWS V14.01,2013-03-12 00:02:00,
2013-03-11 20:07:00,38.1,37.8,29.43,ESE,102,6.0,12.0,99,0.24,,---,3.43,VWS V14.01,2013-03-12 00:07:00,
2013-03-11 20:12:00,38.0,37.7,29.42,ESE,107,10.0,12.0,99,0.25,,---,3.44,VWS V14.01,2013-03-12 00:12:00,
2013-03-11 20:17:00,37.9,37.6,29.42,ESE,109,4.0,12.0,99,0.27,,---,3.46,VWS V14.01,2013-03-12 00:17:00,
2013-03-11 20:23:00,37.8,37.5,29.42,East,99,9.0,12.0,99,0.28,,---,3.47,VWS V14.01,2013-03-12 00:23:00,
2013-03-11 20:28:00,37.8,37.5,29.42,ESE,102,11.0,12.0,99,0.29,,---,3.49,VWS V14.01,2013-03-12 00:28:00,
2013-03-11 20:30:00,37.9,37.7,29.42,East,98,9.0,12.0,99,0.30,,---,3.49,VWS V15.00,2013-03-12 00:30:00,
2013-03-11 20:33:00,37.9,37.6,29.42,East,86,7.0,11.0,99,0.29,,---,3.49,VWS V14.01,2013-03-12 00:33:00,
2013-03-11 20:38:00,37.9,37.6,29.42,East,91,5.0,11.0,99,0.30,,---,3.50,VWS V14.01,2013-03-12 00:38:00,
2013-03-11 20:43:00,38.0,37.7,29.41,ESE,102,7.0,12.0,99,0.30,,---,3.50,VWS V14.01,2013-03-12 00:43:00,
2013-03-11 20:48:00,38.1,37.8,29.41,ENE,75,5.0,13.0,99,0.31,,---,3.51,VWS V14.01,2013-03-12 00:48:00,
2013-03-11 20:53:00,38.2,37.9,29.40,ENE,63,9.0,14.0,99,0.31,,---,3.51,VWS V14.01,2013-03-12 00:53:00,
2013-03-11 20:58:00,37.9,37.6,29.40,ENE,77,3.0,14.0,99,0.31,,---,3.51,VWS V14.01,2013-03-12 00:58:00,
2013-03-11 21:00:00,37.7,37.4,29.40,ENE,72,4.0,14.0,99,0.31,,---,3.51,VWS V15.00,2013-03-12 01:00:00,
2013-03-11 21:03:00,37.6,37.3,29.40,ENE,75,4.0,10.0,99,0.11,,---,3.52,VWS V14.01,2013-03-12 01:03:00,
2013-03-11 21:08:00,37.3,37.0,29.39,ENE,75,7.0,13.0,99,0.11,,---,3.52,VWS V14.01,2013-03-12 01:08:00,
2013-03-11 21:13:00,37.1,36.8,29.39,East,79,13.0,14.0,99,0.12,,---,3.53,VWS V14.01,2013-03-12 01:13:00,
2013-03-11 21:18:00,37.0,36.8,29.38,ENE,61,16.0,16.0,99,0.13,,---,3.54,VWS V14.01,2013-03-12 01:18:00,
2013-03-11 21:23:00,37.0,36.8,29.37,ENE,77,10.0,16.0,99,0.14,,---,3.55,VWS V14.01,2013-03-12 01:23:00,
2013-03-11 21:28:00,37.0,36.8,29.37,East,95,15.0,16.0,99,0.14,,---,3.55,VWS V14.01,2013-03-12 01:28:00,
2013-03-11 21:30:00,37.0,36.8,29.37,East,92,15.0,19.0,99,0.15,,---,3.56,VWS V15.00,2013-03-12 01:30:00,
2013-03-11 21:33:00,37.0,36.8,29.37,East,86,7.0,18.0,99,0.07,,---,3.56,VWS V14.01,2013-03-12 01:33:00,
2013-03-11 21:39:00,36.9,36.7,29.37,ESE,102,8.0,20.0,99,0.07,,---,3.56,VWS V14.01,2013-03-12 01:39:00,
2013-03-11 21:44:00,36.7,36.5,29.37,ESE,109,10.0,20.0,99,0.07,,---,3.56,VWS V14.01,2013-03-12 01:44:00,
2013-03-11 21:49:00,36.4,36.2,29.37,NNE,25,10.0,20.0,99,0.07,,---,3.56,VWS V14.01,2013-03-12 01:49:00,
2013-03-11 21:54:00,36.3,36.0,29.37,NNE,13,14.0,20.0,99,0.07,,---,3.56,VWS V14.01,2013-03-12 01:54:00,
2013-03-11 21:59:00,36.1,35.8,29.37,NNE,15,9.0,20.0,99,0.07,,---,3.56,VWS V14.01,2013-03-12 01:59:00,
2013-03-11 22:00:00,36.0,35.8,29.37,NNE,17,10.0,20.0,99,0.07,,---,3.56,VWS V15.00,2013-03-12 02:00:00,
2013-03-11 22:04:00,36.0,35.8,29.36,North,10,9.0,12.0,99,0.05,,---,3.56,VWS V14.01,2013-03-12 02:04:00,
2013-03-11 22:09:00,35.8,35.5,29.36,North,356,10.0,12.0,99,0.05,,---,3.56,VWS V14.01,2013-03-12 02:09:00,
2013-03-11 22:14:00,35.6,35.3,29.36,North,349,12.0,13.0,99,0.05,,---,3.56,VWS V14.01,2013-03-12 02:14:00,
2013-03-11 22:19:00,35.5,35.2,29.36,North,353,11.0,13.0,99,0.05,,---,3.56,VWS V14.01,2013-03-12 02:19:00,
2013-03-11 22:24:00,35.4,35.2,29.36,North,350,11.0,13.0,99,0.05,,---,3.56,VWS V14.01,2013-03-12 02:24:00,
2013-03-11 22:29:00,36.0,35.8,29.36,ENE,68,5.0,13.0,99,0.05,,---,4.02,VWS V14.01,2013-03-12 02:29:00,
2013-03-11 22:30:00,35.9,35.7,29.36,ENE,74,9.0,13.0,99,0.51,,---,4.02,VWS V15.00,2013-03-12 02:30:00,
2013-03-11 22:34:00,35.9,35.7,29.36,East,84,5.0,14.0,99,0.46,,---,4.02,VWS V14.01,2013-03-12 02:34:00,
2013-03-11 22:39:00,35.9,35.7,29.36,ESE,102,13.0,14.0,99,0.46,,---,4.02,VWS V14.01,2013-03-12 02:39:00,
2013-03-11 22:44:00,35.8,35.5,29.36,East,88,7.0,14.0,99,0.46,,---,4.02,VWS V14.01,2013-03-12 02:44:00,
2013-03-11 22:49:00,35.7,35.5,29.36,East,100,5.0,14.0,99,0.47,,---,4.03,VWS V14.01,2013-03-12 02:49:00,
2013-03-11 22:54:00,35.7,35.5,29.36,East,99,7.0,14.0,99,0.56,,---,4.14,VWS V14.01,2013-03-12 02:54:00,
2013-03-11 22:59:00,35.6,35.3,29.36,ESE,106,6.0,14.0,99,0.61,,---,4.17,VWS V14.01,2013-03-12 02:59:00,
2013-03-11 23:00:00,35.6,35.3,29.36,ESE,120,3.0,14.0,99,0.62,,---,4.18,VWS V15.00,2013-03-12 03:00:00,
2013-03-11 23:04:00,35.6,35.3,29.36,ESE,122,5.0,5.0,99,0.62,,---,4.18,VWS V14.01,2013-03-12 03:04:00,
2013-03-11 23:09:00,35.6,35.3,29.36,ESE,104,2.0,7.0,99,0.64,,---,4.20,VWS V14.01,2013-03-12 03:09:00,
2013-03-11 23:14:00,35.6,35.3,29.35,East,88,7.0,8.0,99,0.76,,---,4.32,VWS V14.01,2013-03-12 03:14:00,
2013-03-11 23:19:00,35.7,35.5,29.35,East,90,7.0,11.0,99,1.00,,---,4.56,VWS V14.01,2013-03-12 03:19:00,
2013-03-11 23:24:00,35.7,35.5,29.35,ENE,72,4.0,11.0,99,1.29,,---,4.85,VWS V14.01,2013-03-12 03:24:00,
2013-03-11 23:29:00,35.6,35.3,29.34,ENE,66,5.0,11.0,99,1.54,,---,5.12,VWS V14.01,2013-03-12 03:29:00,
2013-03-11 23:30:00,35.6,35.3,29.34,East,100,8.0,13.0,99,1.63,,---,5.19,VWS V15.00,2013-03-12 03:30:00,
2013-03-11 23:34:00,35.6,35.3,29.34,ENE,78,3.0,10.0,99,1.27,,---,5.29,VWS V14.01,2013-03-12 03:34:00,
2013-03-11 23:39:00,35.5,35.2,29.34,East,89,3.0,10.0,99,1.36,,---,5.38,VWS V14.01,2013-03-12 03:39:00,
2013-03-11 23:45:00,35.5,35.2,29.35,East,100,0.0,10.0,99,1.38,,---,5.40,VWS V14.01,2013-03-12 03:45:00,
2013-03-11 23:50:00,35.4,35.2,29.35,East,84,3.0,10.0,99,1.39,,---,5.41,VWS V14.01,2013-03-12 03:50:00,
2013-03-11 23:55:00,35.3,35.0,29.35,ENE,77,1.0,10.0,99,1.45,,---,5.48,VWS V14.01,2013-03-12 03:55:00,